createdAt,value
2018-08-13T00:01:05.564Z,6.63
2018-08-13T00:03:50.594Z,8.00
2018-08-13T00:06:32.289Z,10.23
2018-08-13T00:09:13.205Z,10.33
2018-08-13T00:11:55.699Z,11.37
2018-08-13T00:14:36.766Z,9.70
2018-08-13T00:17:18.596Z,14.10
2018-08-13T00:19:59.419Z,6.23
2018-08-13T00:22:41.526Z,7.40
2018-08-13T00:25:22.645Z,5.30
2018-08-13T00:28:04.393Z,7.70
2018-08-13T00:30:45.273Z,13.00
2018-08-13T00:33:26.170Z,14.83
2018-08-13T00:36:06.869Z,10.10
2018-08-13T00:38:48.747Z,7.70
2018-08-13T00:41:30.394Z,10.43
2018-08-13T00:44:11.206Z,8.77
2018-08-13T00:46:52.225Z,8.57
2018-08-13T00:49:33.089Z,12.70
2018-08-13T00:52:14.881Z,11.57
2018-08-13T00:54:55.829Z,12.90
2018-08-13T00:57:36.989Z,7.73
2018-08-13T01:00:18.615Z,10.77
2018-08-13T01:03:00.028Z,9.77
2018-08-13T01:05:40.716Z,8.47
2018-08-13T01:08:22.322Z,6.50
2018-08-13T01:11:16.279Z,9.77
2018-08-13T01:13:57.990Z,10.40
2018-08-13T01:16:40.782Z,13.43
2018-08-13T01:19:23.702Z,9.73
2018-08-13T01:22:05.189Z,8.87
2018-08-13T01:24:45.956Z,7.00
2018-08-13T01:27:32.041Z,7.00
2018-08-13T01:33:27.348Z,7.13
2018-08-13T01:36:08.952Z,11.07
2018-08-13T01:38:50.196Z,5.43
2018-08-13T01:41:32.438Z,7.83
2018-08-13T01:44:21.475Z,9.30
2018-08-13T01:47:03.195Z,10.20
2018-08-13T01:49:44.720Z,8.00
2018-08-13T01:52:27.816Z,9.23
2018-08-13T01:55:09.410Z,11.13
2018-08-13T01:57:51.220Z,7.77
2018-08-13T02:00:32.849Z,8.90
2018-08-13T02:03:14.516Z,7.93
2018-08-13T02:05:55.333Z,5.00
2018-08-13T02:08:41.094Z,5.13
2018-08-13T02:11:23.888Z,7.43
2018-08-13T02:14:05.322Z,7.07
2018-08-13T02:16:47.719Z,6.10
2018-08-13T02:19:30.018Z,6.00
2018-08-13T02:22:24.923Z,11.70
2018-08-13T02:25:06.931Z,8.90
2018-08-13T02:27:48.212Z,10.40
2018-08-13T02:30:29.783Z,8.33
2018-08-13T02:33:10.598Z,7.20
2018-08-13T02:36:08.439Z,6.90
2018-08-13T02:38:50.166Z,6.60
2018-08-13T02:41:31.936Z,7.03
2018-08-13T02:44:13.760Z,9.90
2018-08-13T02:46:55.429Z,7.70
2018-08-13T02:49:37.161Z,8.13
2018-08-13T02:52:26.174Z,7.37
2018-08-13T02:55:07.865Z,7.60
2018-08-13T02:57:49.561Z,7.60
2018-08-13T03:03:53.001Z,7.30
2018-08-13T03:06:34.723Z,4.80
2018-08-13T03:09:16.395Z,5.60
2018-08-13T03:11:58.135Z,8.90
2018-08-13T03:14:39.684Z,8.30
2018-08-13T03:20:29.235Z,20.40
2018-08-13T03:23:10.838Z,9.63
2018-08-13T03:25:51.878Z,12.50
2018-08-13T03:28:34.261Z,7.53
2018-08-13T03:31:16.055Z,8.60
2018-08-13T03:33:57.673Z,10.83
2018-08-13T03:36:40.195Z,6.03
2018-08-13T03:39:21.202Z,8.10
2018-08-13T03:42:02.993Z,5.60
2018-08-13T03:44:44.558Z,13.53
2018-08-13T03:47:25.420Z,11.07
2018-08-13T03:50:06.250Z,6.93
2018-08-13T03:52:48.105Z,8.70
2018-08-13T03:55:29.866Z,6.40
2018-08-13T03:58:10.649Z,4.73
2018-08-13T04:00:58.911Z,5.70
2018-08-13T04:03:40.711Z,6.67
2018-08-13T04:06:22.401Z,11.13
2018-08-13T04:09:08.812Z,8.70
2018-08-13T04:11:50.186Z,10.60
2018-08-13T04:14:31.428Z,11.27
2018-08-13T04:26:36.312Z,6.60
2018-08-13T04:29:18.054Z,4.80
2018-08-13T04:31:59.567Z,5.20
2018-08-13T04:34:40.260Z,5.63
2018-08-13T04:37:22.369Z,6.13
2018-08-13T04:40:03.741Z,9.93
2018-08-13T04:42:46.246Z,9.13
2018-08-13T04:45:27.195Z,7.53
2018-08-13T04:48:09.117Z,6.10
2018-08-13T04:50:50.629Z,11.13
2018-08-13T04:53:32.276Z,9.20
2018-08-13T04:56:14.059Z,8.43
2018-08-13T04:58:55.936Z,10.07
2018-08-13T05:01:37.714Z,7.10
2018-08-13T05:04:18.837Z,8.40
2018-08-13T05:07:00.202Z,10.40
2018-08-13T05:09:41.959Z,7.47
2018-08-13T05:12:22.888Z,16.33
2018-08-13T05:15:03.800Z,23.10
2018-08-13T05:17:45.608Z,8.80
2018-08-13T05:20:27.432Z,11.80
2018-08-13T05:23:09.090Z,8.20
2018-08-13T05:25:52.375Z,14.23
2018-08-13T05:28:33.821Z,8.90
2018-08-13T05:31:15.468Z,14.50
2018-08-13T05:33:57.222Z,13.33
2018-08-13T05:36:37.979Z,6.43
2018-08-13T05:39:18.948Z,11.83
2018-08-13T05:41:59.730Z,23.00
2018-08-13T05:44:41.487Z,50.93
2018-08-13T05:47:23.493Z,39.33
2018-08-13T05:50:05.070Z,46.40
2018-08-13T05:52:45.854Z,44.93
2018-08-13T05:55:27.480Z,43.00
2018-08-13T05:58:09.205Z,55.50
2018-08-13T06:00:51.733Z,48.20
2018-08-13T06:03:32.659Z,76.93
2018-08-13T06:06:13.513Z,46.23
2018-08-13T06:08:55.839Z,46.90
2018-08-13T06:11:37.889Z,75.33
2018-08-13T06:14:18.724Z,37.87
2018-08-13T06:16:59.692Z,47.47
2018-08-13T06:19:41.215Z,71.43
2018-08-13T06:22:22.567Z,80.97
2018-08-13T06:25:05.197Z,41.00
2018-08-13T06:27:46.849Z,38.20
2018-08-13T06:30:28.502Z,23.13
2018-08-13T06:33:09.644Z,35.27
2018-08-13T06:35:51.029Z,26.43
2018-08-13T06:38:34.653Z,15.27
2018-08-13T06:41:16.189Z,19.47
2018-08-13T06:43:57.309Z,16.40
2018-08-13T06:46:38.804Z,24.70
2018-08-13T06:49:19.503Z,17.20
2018-08-13T06:52:00.323Z,19.47
2018-08-13T06:54:42.099Z,16.57
2018-08-13T06:57:23.662Z,14.00
2018-08-13T07:00:05.915Z,13.33
2018-08-13T07:02:47.271Z,19.23
2018-08-13T07:05:29.793Z,10.73
2018-08-13T07:08:10.494Z,15.23
2018-08-13T07:10:51.757Z,11.57
2018-08-13T07:13:33.427Z,12.03
2018-08-13T07:16:14.209Z,10.47
2018-08-13T07:18:54.967Z,11.10
2018-08-13T07:21:36.913Z,12.00
2018-08-13T07:24:18.309Z,8.00
2018-08-13T07:27:00.055Z,10.00
2018-08-13T07:29:42.040Z,10.03
2018-08-13T07:32:23.265Z,12.47
2018-08-13T07:35:05.040Z,19.10
2018-08-13T07:37:46.878Z,10.80
2018-08-13T07:40:29.564Z,11.70
2018-08-13T07:43:10.431Z,8.90
2018-08-13T07:45:51.425Z,13.70
2018-08-13T07:48:33.100Z,15.70
2018-08-13T07:51:14.753Z,8.37
2018-08-13T07:53:55.548Z,41.73
2018-08-13T07:56:37.701Z,11.43
2018-08-13T07:59:19.136Z,10.47
2018-08-13T08:02:00.739Z,6.90
2018-08-13T08:04:43.086Z,9.90
2018-08-13T08:10:07.497Z,11.60
2018-08-13T08:12:51.549Z,10.57
2018-08-13T08:15:36.963Z,11.33
2018-08-13T08:18:30.742Z,14.07
2018-08-13T08:21:12.468Z,9.13
2018-08-13T08:23:54.161Z,10.30
2018-08-13T08:26:36.714Z,12.00
2018-08-13T08:29:18.489Z,10.33
2018-08-13T08:32:00.188Z,10.63
2018-08-13T08:34:42.114Z,9.83
2018-08-13T08:37:24.675Z,9.50
2018-08-13T08:40:06.358Z,6.97
2018-08-13T08:42:49.557Z,24.33
2018-08-13T08:45:31.206Z,9.23
2018-08-13T08:48:12.614Z,11.47
2018-08-13T08:50:54.200Z,13.23
2018-08-13T08:53:35.117Z,6.63
2018-08-13T08:56:15.880Z,13.73
2018-08-13T08:58:56.729Z,8.37
2018-08-13T09:01:38.638Z,10.40
2018-08-13T09:04:19.998Z,14.90
2018-08-13T09:07:02.513Z,14.20
2018-08-13T09:09:43.462Z,7.43
2018-08-13T09:12:25.135Z,9.23
2018-08-13T09:15:06.503Z,9.33
2018-08-13T09:17:48.053Z,11.50
2018-08-13T09:20:29.533Z,8.83
2018-08-13T09:23:11.332Z,9.83
2018-08-13T09:25:52.818Z,10.57
2018-08-13T09:28:34.388Z,13.27
2018-08-13T09:31:15.738Z,15.43
2018-08-13T09:33:56.874Z,12.90
2018-08-13T09:36:38.475Z,17.43
2018-08-13T09:39:20.077Z,12.90
2018-08-13T09:42:01.627Z,8.87
2018-08-13T09:44:43.304Z,10.27
2018-08-13T09:47:25.221Z,9.83
2018-08-13T09:50:06.609Z,9.67
2018-08-13T09:52:48.790Z,8.73
2018-08-13T09:55:29.707Z,17.90
2018-08-13T09:58:11.327Z,6.63
2018-08-13T10:00:57.914Z,9.83
2018-08-13T10:03:40.421Z,14.20
2018-08-13T10:06:21.543Z,11.20
2018-08-13T10:09:03.259Z,10.33
2018-08-13T10:11:45.467Z,9.60
2018-08-13T10:14:26.664Z,6.30
2018-08-13T10:17:09.067Z,15.00
2018-08-13T10:19:50.061Z,13.13
2018-08-13T10:22:31.846Z,8.47
2018-08-13T10:25:14.191Z,9.83
2018-08-13T10:27:55.105Z,13.00
2018-08-13T10:30:36.534Z,9.67
2018-08-13T10:33:17.322Z,10.77
2018-08-13T10:35:59.048Z,14.47
2018-08-13T10:38:40.660Z,14.73
2018-08-13T10:41:22.400Z,13.63
2018-08-13T10:44:04.142Z,15.50
2018-08-13T10:46:45.696Z,12.53
2018-08-13T10:49:27.293Z,11.47
2018-08-13T10:52:08.842Z,17.83
2018-08-13T10:54:50.441Z,10.80
2018-08-13T10:57:31.838Z,10.27
2018-08-13T11:00:13.517Z,14.10
2018-08-13T11:02:55.100Z,9.60
2018-08-13T11:05:36.770Z,10.43
2018-08-13T11:08:18.360Z,13.23
2018-08-13T11:10:59.148Z,10.03
2018-08-13T11:13:41.040Z,12.00
2018-08-13T11:16:22.516Z,12.50
2018-08-13T11:19:04.531Z,13.00
2018-08-13T11:21:45.958Z,15.90
2018-08-13T11:24:27.749Z,11.63
2018-08-13T11:27:12.916Z,10.60
2018-08-13T11:29:54.055Z,11.30
2018-08-13T11:32:35.625Z,8.80
2018-08-13T11:35:17.319Z,9.20
2018-08-13T11:37:58.224Z,9.83
2018-08-13T11:40:39.571Z,12.63
2018-08-13T11:43:20.334Z,12.43
2018-08-13T11:46:02.054Z,16.93
2018-08-13T11:48:43.663Z,10.50
2018-08-13T11:51:25.384Z,8.13
2018-08-13T11:54:06.802Z,8.73
2018-08-13T11:56:48.387Z,12.37
2018-08-13T11:59:30.325Z,12.33
2018-08-13T12:02:12.046Z,8.33
2018-08-13T12:04:53.758Z,12.80
2018-08-13T12:07:35.602Z,17.07
2018-08-13T12:10:28.737Z,10.03
2018-08-13T12:13:10.519Z,16.57
2018-08-13T12:15:51.716Z,14.63
2018-08-13T12:18:41.513Z,18.63
2018-08-13T12:21:23.272Z,14.30
2018-08-13T12:24:04.992Z,11.53
2018-08-13T12:26:47.160Z,10.20
2018-08-13T12:29:28.197Z,14.80
2018-08-13T12:32:10.282Z,12.47
2018-08-13T12:34:51.403Z,13.20
2018-08-13T12:37:33.300Z,14.93
2018-08-13T12:40:14.546Z,8.97
2018-08-13T12:42:56.008Z,15.83
2018-08-13T12:45:36.818Z,10.77
2018-08-13T12:48:30.706Z,12.70
2018-08-13T12:51:11.572Z,10.10
2018-08-13T12:53:54.464Z,17.90
2018-08-13T12:56:35.727Z,9.40
2018-08-13T12:59:17.229Z,18.73
2018-08-13T13:01:58.831Z,8.67
2018-08-13T13:04:40.980Z,12.83
2018-08-13T13:07:22.136Z,12.43
2018-08-13T13:10:02.920Z,11.67
2018-08-13T13:12:44.722Z,13.00
2018-08-13T13:15:26.291Z,12.13
2018-08-13T13:18:08.410Z,11.63
2018-08-13T13:20:50.380Z,10.63
2018-08-13T13:23:31.542Z,7.63
2018-08-13T13:26:12.506Z,12.50
2018-08-13T13:28:54.006Z,11.03
2018-08-13T13:31:36.837Z,8.90
2018-08-13T13:34:18.209Z,13.60
2018-08-13T13:36:59.938Z,12.33
2018-08-13T13:39:41.227Z,9.00
2018-08-13T13:42:23.233Z,12.40
2018-08-13T13:45:04.078Z,11.20
2018-08-13T13:47:45.700Z,10.57
2018-08-13T13:50:26.478Z,11.00
2018-08-13T13:53:08.718Z,14.80
2018-08-13T13:55:49.746Z,11.50
2018-08-13T13:58:30.578Z,10.03
2018-08-13T14:01:12.278Z,10.03
2018-08-13T14:03:53.904Z,12.30
2018-08-13T14:06:35.568Z,10.60
2018-08-13T14:09:17.070Z,12.93
2018-08-13T14:11:58.724Z,15.47
2018-08-13T14:14:40.525Z,11.57
2018-08-13T14:17:22.047Z,9.27
2018-08-13T14:20:03.648Z,10.00
2018-08-13T14:22:45.354Z,7.97
2018-08-13T14:25:27.375Z,8.40
2018-08-13T14:28:09.502Z,7.57
2018-08-13T14:30:51.106Z,10.73
2018-08-13T14:33:32.653Z,10.57
2018-08-13T14:36:14.361Z,7.77
2018-08-13T14:38:55.156Z,11.27
2018-08-13T14:41:38.781Z,6.90
2018-08-13T14:44:19.650Z,12.67
2018-08-13T14:47:01.227Z,7.57
2018-08-13T14:49:42.732Z,10.77
2018-08-13T14:52:24.330Z,13.47
2018-08-13T14:55:06.008Z,9.83
2018-08-13T14:57:47.743Z,9.87
2018-08-13T15:00:36.962Z,9.40
2018-08-13T15:03:18.466Z,7.90
2018-08-13T15:05:59.832Z,8.40
2018-08-13T15:08:42.429Z,11.20
2018-08-13T15:11:28.179Z,13.30
2018-08-13T15:14:10.581Z,11.80
2018-08-13T15:16:52.357Z,11.63
2018-08-13T15:19:34.022Z,9.00
2018-08-13T15:22:16.211Z,18.10
2018-08-13T15:24:57.417Z,7.57
2018-08-13T15:27:39.059Z,13.10
2018-08-13T15:30:20.009Z,9.03
2018-08-13T15:33:01.814Z,16.43
2018-08-13T15:35:43.628Z,9.13
2018-08-13T15:38:25.486Z,11.23
2018-08-13T15:41:06.841Z,8.17
2018-08-13T15:43:48.575Z,15.20
2018-08-13T15:46:35.364Z,9.70
2018-08-13T15:49:17.020Z,8.70
2018-08-13T15:51:59.654Z,10.50
2018-08-13T15:54:41.336Z,7.90
2018-08-13T15:57:22.823Z,13.53
2018-08-13T16:00:05.430Z,11.23
2018-08-13T16:02:46.307Z,11.30
2018-08-13T16:05:27.011Z,8.90
2018-08-13T16:08:08.788Z,12.20
2018-08-13T16:10:50.931Z,12.37
2018-08-13T16:13:32.039Z,10.20
2018-08-13T16:16:13.646Z,8.77
2018-08-13T16:18:55.381Z,10.90
2018-08-13T16:21:37.078Z,11.53
2018-08-13T16:24:18.907Z,10.40
2018-08-13T16:27:00.461Z,8.23
2018-08-13T16:29:42.234Z,16.77
2018-08-13T16:32:23.900Z,8.70
2018-08-13T16:35:05.530Z,11.50
2018-08-13T16:37:47.227Z,9.33
2018-08-13T16:40:28.783Z,10.10
2018-08-13T16:43:10.347Z,9.47
2018-08-13T16:45:51.991Z,11.53
2018-08-13T16:48:32.844Z,10.37
2018-08-13T16:51:15.544Z,9.53
2018-08-13T16:53:57.879Z,11.10
2018-08-13T16:56:39.041Z,10.80
2018-08-13T16:59:26.620Z,10.43
2018-08-13T17:02:08.231Z,9.43
2018-08-13T17:04:50.726Z,7.80
2018-08-13T17:07:32.382Z,8.27
2018-08-13T17:10:14.664Z,10.63
2018-08-13T17:12:56.397Z,12.10
2018-08-13T17:15:37.468Z,12.30
2018-08-13T17:18:19.123Z,12.30
2018-08-13T17:21:00.795Z,11.77
2018-08-13T17:23:42.551Z,13.17
2018-08-13T17:26:24.152Z,10.37
2018-08-13T17:29:06.757Z,10.60
2018-08-13T17:31:49.141Z,12.23
2018-08-13T17:34:31.049Z,7.30
2018-08-13T17:37:12.748Z,14.80
2018-08-13T17:39:54.413Z,10.80
2018-08-13T17:42:36.217Z,9.63
2018-08-13T17:45:18.252Z,13.87
2018-08-13T17:47:59.648Z,7.20
2018-08-13T17:50:41.258Z,8.97
2018-08-13T17:53:22.811Z,14.77
2018-08-13T17:56:04.599Z,13.33
2018-08-13T17:58:46.361Z,11.50
2018-08-13T18:01:28.185Z,7.60
2018-08-13T18:04:09.688Z,7.70
2018-08-13T18:06:51.420Z,10.13
2018-08-13T18:09:33.470Z,12.37
2018-08-13T18:12:18.990Z,7.33
2018-08-13T18:15:00.638Z,7.63
2018-08-13T18:17:41.910Z,8.77
2018-08-13T18:20:23.014Z,9.50
2018-08-13T18:23:13.199Z,16.40
2018-08-13T18:26:17.448Z,8.40
2018-08-13T18:28:58.394Z,13.10
2018-08-13T18:31:39.836Z,12.07
2018-08-13T18:34:21.673Z,16.13
2018-08-13T18:37:03.263Z,12.93
2018-08-13T18:39:44.992Z,9.37
2018-08-13T18:42:26.620Z,20.80
2018-08-13T18:45:19.466Z,12.27
2018-08-13T18:48:05.074Z,20.13
2018-08-13T18:50:46.836Z,10.07
2018-08-13T18:53:28.385Z,17.93
2018-08-13T18:56:10.131Z,6.20
2018-08-13T18:58:51.465Z,14.70
2018-08-13T19:01:47.330Z,9.57
2018-08-13T19:04:43.170Z,16.90
2018-08-13T19:07:24.975Z,15.17
2018-08-13T19:10:06.383Z,10.47
2018-08-13T19:12:48.062Z,18.30
2018-08-13T19:15:30.499Z,12.03
2018-08-13T19:18:11.453Z,10.93
2018-08-13T19:20:53.292Z,16.37
2018-08-13T19:23:35.567Z,7.53
2018-08-13T19:26:17.291Z,12.03
2018-08-13T19:28:58.636Z,16.70
2018-08-13T19:31:40.666Z,10.77
2018-08-13T19:34:22.361Z,19.50
2018-08-13T19:37:08.014Z,12.90
2018-08-13T19:39:49.918Z,11.60
2018-08-13T19:42:31.459Z,19.70
2018-08-13T19:45:13.451Z,16.60
2018-08-13T19:47:55.279Z,8.03
2018-08-13T19:50:36.572Z,12.33
2018-08-13T19:53:18.597Z,10.30
2018-08-13T19:56:01.851Z,6.67
2018-08-13T19:58:42.817Z,10.07
2018-08-13T20:01:25.603Z,12.00
2018-08-13T20:04:07.139Z,11.50
2018-08-13T20:06:49.248Z,7.10
2018-08-13T20:09:30.591Z,8.50
2018-08-13T20:12:12.117Z,10.40
2018-08-13T20:14:53.986Z,5.97
2018-08-13T20:17:42.126Z,11.50
2018-08-13T20:20:23.695Z,10.80
2018-08-13T20:23:05.493Z,13.43
2018-08-13T20:25:48.202Z,8.90
2018-08-13T20:28:30.715Z,8.17
2018-08-13T20:31:15.004Z,11.13
2018-08-13T20:37:12.119Z,6.50
2018-08-13T20:39:54.100Z,13.20
2018-08-13T20:42:36.550Z,10.17
2018-08-13T20:45:18.756Z,18.77
2018-08-13T20:48:01.573Z,6.33
2018-08-13T20:50:43.226Z,13.23
2018-08-13T20:53:24.919Z,6.67
2018-08-13T20:56:06.820Z,8.97
2018-08-13T20:58:48.348Z,9.27
2018-08-13T21:01:30.032Z,6.17
2018-08-13T21:07:26.963Z,7.73
2018-08-13T21:10:08.640Z,12.13
2018-08-13T21:12:50.768Z,6.23
2018-08-13T21:15:31.943Z,7.23
2018-08-13T21:18:13.620Z,7.57
2018-08-13T21:20:55.174Z,8.50
2018-08-13T21:23:37.439Z,9.77
2018-08-13T21:26:19.208Z,7.33
2018-08-13T21:29:00.355Z,6.53
2018-08-13T21:31:42.252Z,12.27
2018-08-13T21:34:23.674Z,8.90
2018-08-13T21:37:05.225Z,10.33
2018-08-13T21:39:47.145Z,7.27
2018-08-13T21:42:28.667Z,6.87
2018-08-13T21:45:10.891Z,5.53
2018-08-13T21:47:52.002Z,8.67
2018-08-13T21:50:33.913Z,7.17
2018-08-13T21:53:15.382Z,10.30
2018-08-13T21:55:57.157Z,7.40
2018-08-13T21:58:38.717Z,7.87
2018-08-13T22:01:25.334Z,8.13
2018-08-13T22:04:17.092Z,4.90
2018-08-13T22:06:58.823Z,5.07
2018-08-13T22:09:40.510Z,8.80
2018-08-13T22:12:22.060Z,5.80
2018-08-13T22:15:03.769Z,8.10
2018-08-13T22:17:46.277Z,8.87
2018-08-13T22:20:28.803Z,6.00
2018-08-13T22:23:10.468Z,9.53
2018-08-13T22:25:53.300Z,8.80
2018-08-13T22:28:34.934Z,7.37
2018-08-13T22:31:16.529Z,5.43
2018-08-13T22:33:58.246Z,6.43
2018-08-13T22:36:40.137Z,6.77
2018-08-13T22:39:21.699Z,6.70
2018-08-13T22:42:03.471Z,6.43
2018-08-13T22:44:45.049Z,8.30
2018-08-13T22:47:26.664Z,7.83
2018-08-13T22:50:08.302Z,10.00
2018-08-13T22:52:49.469Z,7.50
2018-08-13T22:55:31.163Z,6.87
2018-08-13T22:58:12.820Z,8.60
2018-08-13T23:00:54.475Z,9.17
2018-08-13T23:03:36.227Z,14.27
2018-08-13T23:06:17.910Z,14.43
2018-08-13T23:08:58.790Z,12.50
2018-08-13T23:11:57.273Z,9.70
2018-08-13T23:14:39.893Z,7.63
2018-08-13T23:17:20.805Z,10.80
2018-08-13T23:20:02.571Z,6.10
2018-08-13T23:22:45.055Z,6.20
2018-08-13T23:25:26.829Z,7.13
2018-08-13T23:28:07.854Z,8.23
2018-08-13T23:30:49.547Z,5.20
2018-08-13T23:33:31.197Z,7.43
2018-08-13T23:36:13.124Z,6.37
2018-08-13T23:38:54.617Z,11.27
2018-08-13T23:41:53.368Z,9.83
2018-08-13T23:44:35.335Z,8.17
2018-08-13T23:47:17.190Z,6.20
2018-08-13T23:49:58.350Z,7.03
2018-08-13T23:52:40.642Z,9.00
2018-08-13T23:55:22.308Z,12.10
2018-08-13T23:58:05.499Z,8.27
